createdAt,value
2018-06-13T00:02:30.843Z,4.30
2018-06-13T00:05:03.254Z,6.03
2018-06-13T00:07:31.758Z,5.30
2018-06-13T00:10:03.168Z,4.60
2018-06-13T00:12:31.661Z,4.97
2018-06-13T00:15:00.147Z,3.90
2018-06-13T00:17:33.369Z,4.90
2018-06-13T00:20:01.889Z,5.90
2018-06-13T00:22:31.369Z,4.87
2018-06-13T00:25:01.559Z,4.80
2018-06-13T00:27:31.052Z,4.17
2018-06-13T00:30:01.115Z,5.00
2018-06-13T00:32:31.674Z,5.53
2018-06-13T00:35:00.316Z,4.63
2018-06-13T00:37:30.304Z,4.80
2018-06-13T00:40:04.664Z,5.07
2018-06-13T00:42:33.113Z,4.83
2018-06-13T00:45:01.656Z,4.27
2018-06-13T00:47:30.104Z,4.77
2018-06-13T00:49:58.629Z,4.20
2018-06-13T00:52:27.150Z,4.50
2018-06-13T00:54:55.770Z,4.50
2018-06-13T00:57:24.283Z,4.57
2018-06-13T00:59:52.836Z,3.67
2018-06-13T01:02:21.371Z,4.30
2018-06-13T01:04:49.851Z,3.80
2018-06-13T01:07:18.472Z,4.57
2018-06-13T01:09:47.019Z,3.90
2018-06-13T01:12:15.515Z,4.83
2018-06-13T01:14:43.952Z,4.40
2018-06-13T01:17:12.453Z,4.33
2018-06-13T01:19:40.933Z,3.80
2018-06-13T01:22:09.554Z,4.30
2018-06-13T01:24:38.011Z,4.30
2018-06-13T01:27:06.571Z,4.27
2018-06-13T01:29:35.179Z,4.30
2018-06-13T01:32:03.675Z,4.50
2018-06-13T01:34:32.172Z,5.10
2018-06-13T01:37:00.745Z,4.93
2018-06-13T01:39:29.199Z,5.30
2018-06-13T01:41:57.728Z,4.73
2018-06-13T01:44:26.241Z,4.57
2018-06-13T01:46:54.768Z,4.27
2018-06-13T01:49:23.246Z,3.97
2018-06-13T01:51:51.697Z,4.40
2018-06-13T01:54:20.166Z,4.60
2018-06-13T01:56:48.629Z,5.00
2018-06-13T01:59:17.238Z,3.60
2018-06-13T02:01:45.701Z,3.90
2018-06-13T02:04:14.206Z,4.20
2018-06-13T02:06:42.726Z,4.13
2018-06-13T02:09:11.310Z,5.00
2018-06-13T02:11:39.758Z,3.57
2018-06-13T02:14:08.274Z,4.47
2018-06-13T02:16:36.753Z,4.33
2018-06-13T02:19:05.282Z,4.07
2018-06-13T02:21:33.731Z,4.83
2018-06-13T02:24:02.163Z,4.30
2018-06-13T02:26:30.674Z,4.80
2018-06-13T02:28:59.141Z,4.50
2018-06-13T02:31:27.630Z,4.13
2018-06-13T02:33:56.078Z,3.97
2018-06-13T02:36:24.571Z,4.20
2018-06-13T02:38:53.042Z,3.93
2018-06-13T02:41:21.548Z,4.53
2018-06-13T02:43:50.019Z,4.30
2018-06-13T02:46:18.515Z,4.30
2018-06-13T02:48:47.215Z,4.17
2018-06-13T02:51:15.762Z,3.97
2018-06-13T02:53:44.246Z,3.70
2018-06-13T02:56:12.714Z,3.93
2018-06-13T02:58:41.175Z,3.43
2018-06-13T03:01:09.752Z,4.03
2018-06-13T03:03:38.199Z,3.50
2018-06-13T03:06:06.659Z,4.17
2018-06-13T03:08:35.154Z,4.20
2018-06-13T03:11:03.637Z,4.10
2018-06-13T03:13:32.195Z,4.03
2018-06-13T03:16:00.738Z,4.00
2018-06-13T03:18:29.221Z,4.00
2018-06-13T03:20:57.727Z,3.80
2018-06-13T03:23:26.234Z,3.50
2018-06-13T03:25:54.690Z,3.80
2018-06-13T03:28:23.226Z,4.57
2018-06-13T03:30:53.784Z,4.00
2018-06-13T03:33:24.111Z,4.37
2018-06-13T03:35:52.605Z,4.17
2018-06-13T03:38:21.364Z,4.13
2018-06-13T03:40:49.486Z,4.07
2018-06-13T03:43:17.978Z,4.40
2018-06-13T03:45:46.430Z,4.40
2018-06-13T03:48:14.906Z,4.10
2018-06-13T03:50:43.358Z,3.47
2018-06-13T03:53:11.813Z,3.97
2018-06-13T03:55:40.269Z,5.00
2018-06-13T03:58:08.737Z,3.47
2018-06-13T04:00:37.213Z,3.70
2018-06-13T04:03:06.262Z,4.30
2018-06-13T04:05:34.707Z,3.97
2018-06-13T04:08:03.210Z,3.63
2018-06-13T04:10:31.698Z,3.87
2018-06-13T04:13:00.150Z,3.27
2018-06-13T04:15:28.667Z,3.40
2018-06-13T04:17:57.143Z,5.80
2018-06-13T04:20:25.686Z,4.27
2018-06-13T04:22:54.469Z,3.07
2018-06-13T04:25:22.975Z,4.00
2018-06-13T04:27:52.894Z,4.10
2018-06-13T04:30:31.104Z,4.17
2018-06-13T04:32:59.565Z,3.50
2018-06-13T04:35:28.579Z,3.60
2018-06-13T04:37:57.145Z,3.00
2018-06-13T04:40:27.952Z,3.50
2018-06-13T04:42:56.987Z,3.30
2018-06-13T04:45:25.550Z,2.80
2018-06-13T04:47:54.032Z,3.63
2018-06-13T04:50:22.595Z,3.27
2018-06-13T04:52:51.070Z,3.63
2018-06-13T04:55:19.543Z,2.83
2018-06-13T04:57:48.838Z,3.23
2018-06-13T05:00:17.431Z,3.47
2018-06-13T05:02:45.938Z,3.10
2018-06-13T05:05:14.483Z,3.50
2018-06-13T05:07:43.091Z,2.60
2018-06-13T05:10:11.642Z,2.67
2018-06-13T05:12:40.136Z,3.93
2018-06-13T05:15:08.716Z,3.20
2018-06-13T05:17:37.206Z,2.60
2018-06-13T05:20:05.716Z,3.00
2018-06-13T05:22:34.245Z,3.43
2018-06-13T05:25:02.755Z,3.27
2018-06-13T05:27:31.567Z,2.50
2018-06-13T05:30:00.039Z,2.93
2018-06-13T05:32:28.542Z,2.93
2018-06-13T05:34:57.000Z,2.77
2018-06-13T05:37:25.589Z,3.00
2018-06-13T05:39:54.094Z,2.67
2018-06-13T05:42:22.551Z,3.20
2018-06-13T05:44:51.078Z,2.93
2018-06-13T05:47:19.545Z,3.17
2018-06-13T05:49:48.050Z,2.67
2018-06-13T05:52:16.496Z,2.60
2018-06-13T05:54:44.983Z,2.87
2018-06-13T05:57:13.425Z,2.13
2018-06-13T05:59:41.934Z,3.23
2018-06-13T06:02:10.392Z,3.07
2018-06-13T06:04:38.969Z,2.90
2018-06-13T06:07:07.477Z,3.30
2018-06-13T06:09:36.075Z,3.13
2018-06-13T06:12:04.638Z,3.30
2018-06-13T06:14:33.135Z,3.07
2018-06-13T06:17:01.719Z,2.80
2018-06-13T06:19:30.180Z,2.13
2018-06-13T06:21:58.711Z,3.43
2018-06-13T06:24:27.183Z,2.83
2018-06-13T06:26:55.881Z,3.53
2018-06-13T06:29:24.339Z,2.63
2018-06-13T06:31:52.922Z,2.80
2018-06-13T06:34:21.380Z,2.73
2018-06-13T06:36:51.195Z,3.70
2018-06-13T06:39:19.683Z,3.23
2018-06-13T06:41:48.200Z,2.83
2018-06-13T06:44:16.671Z,3.87
2018-06-13T06:46:46.692Z,3.07
2018-06-13T06:49:15.163Z,3.93
2018-06-13T06:51:44.111Z,2.57
2018-06-13T06:54:12.660Z,2.90
2018-06-13T06:59:19.842Z,3.57
2018-06-13T07:01:48.354Z,3.60
2018-06-13T07:04:16.829Z,3.77
2018-06-13T07:06:45.356Z,3.20
2018-06-13T07:09:13.862Z,3.10
2018-06-13T07:11:42.379Z,2.60
2018-06-13T07:14:10.874Z,3.57
2018-06-13T07:16:39.631Z,4.27
2018-06-13T07:19:08.892Z,4.60
2018-06-13T07:21:37.346Z,3.97
2018-06-13T07:24:05.884Z,3.80
2018-06-13T07:26:34.402Z,4.13
2018-06-13T07:29:03.988Z,3.37
2018-06-13T07:31:32.470Z,3.47
2018-06-13T07:34:01.013Z,3.80
2018-06-13T07:36:29.482Z,4.30
2018-06-13T07:38:58.012Z,4.07
2018-06-13T07:41:26.604Z,3.70
2018-06-13T07:43:55.132Z,3.70
2018-06-13T07:46:23.628Z,3.90
2018-06-13T07:48:52.387Z,3.60
2018-06-13T07:51:20.938Z,3.23
2018-06-13T07:53:49.521Z,4.00
2018-06-13T07:56:17.980Z,3.23
2018-06-13T07:58:46.481Z,3.67
2018-06-13T08:01:15.053Z,2.80
2018-06-13T08:03:44.701Z,3.27
2018-06-13T08:06:14.002Z,2.90
2018-06-13T08:08:42.578Z,3.10
2018-06-13T08:11:11.086Z,3.20
2018-06-13T08:13:39.594Z,3.73
2018-06-13T08:16:08.093Z,3.40
2018-06-13T08:18:36.612Z,2.80
2018-06-13T08:21:05.147Z,3.20
2018-06-13T08:23:33.631Z,4.00
2018-06-13T08:26:02.178Z,4.00
2018-06-13T08:28:30.946Z,3.83
2018-06-13T08:30:59.494Z,4.13
2018-06-13T08:33:27.993Z,17.87
2018-06-13T08:35:56.676Z,6.23
2018-06-13T08:38:25.186Z,5.57
2018-06-13T08:40:53.852Z,5.70
2018-06-13T08:43:22.378Z,3.67
2018-06-13T08:45:51.026Z,3.20
2018-06-13T08:48:19.572Z,2.67
2018-06-13T08:50:48.089Z,2.23
2018-06-13T08:53:16.723Z,2.33
2018-06-13T08:55:45.326Z,2.33
2018-06-13T08:58:13.849Z,2.40
2018-06-13T09:00:42.367Z,2.17
2018-06-13T09:03:10.952Z,2.47
2018-06-13T09:05:39.489Z,2.30
2018-06-13T09:08:08.055Z,2.40
2018-06-13T09:10:36.687Z,2.70
2018-06-13T09:13:05.304Z,2.23
2018-06-13T09:15:33.885Z,2.87
2018-06-13T09:18:02.161Z,2.70
2018-06-13T09:20:30.710Z,2.33
2018-06-13T09:22:59.261Z,2.07
2018-06-13T09:25:55.186Z,2.43
2018-06-13T09:28:23.853Z,2.60
2018-06-13T09:30:52.346Z,2.53
2018-06-13T09:33:20.925Z,2.60
2018-06-13T09:35:49.410Z,3.30
2018-06-13T09:38:20.549Z,3.10
2018-06-13T09:40:50.894Z,3.10
2018-06-13T09:43:20.508Z,3.00
2018-06-13T09:45:49.079Z,2.87
2018-06-13T09:48:19.894Z,3.10
2018-06-13T09:50:51.164Z,3.63
2018-06-13T09:53:19.788Z,3.17
2018-06-13T09:55:49.099Z,3.00
2018-06-13T09:58:17.649Z,3.43
2018-06-13T10:00:51.587Z,3.70
2018-06-13T10:03:20.875Z,2.60
2018-06-13T10:05:49.433Z,2.43
2018-06-13T10:08:18.031Z,2.43
2018-06-13T10:10:48.508Z,3.33
2018-06-13T10:13:17.966Z,3.23
2018-06-13T10:15:46.561Z,2.90
2018-06-13T10:18:15.149Z,3.90
2018-06-13T10:20:46.218Z,3.70
2018-06-13T10:23:14.749Z,2.47
2018-06-13T10:25:43.927Z,2.83
2018-06-13T10:28:12.496Z,2.77
2018-06-13T10:30:41.050Z,2.73
2018-06-13T10:33:13.309Z,2.77
2018-06-13T10:35:41.908Z,2.17
2018-06-13T10:38:10.409Z,2.20
2018-06-13T10:40:38.946Z,3.10
2018-06-13T10:43:07.464Z,3.70
2018-06-13T10:45:36.065Z,2.83
2018-06-13T10:48:04.596Z,3.47
2018-06-13T10:50:33.090Z,2.83
2018-06-13T10:53:01.610Z,3.13
2018-06-13T10:55:30.176Z,2.60
2018-06-13T10:57:58.649Z,2.53
2018-06-13T11:00:27.162Z,3.03
2018-06-13T11:02:55.814Z,3.07
2018-06-13T11:05:24.273Z,3.50
2018-06-13T11:07:57.437Z,3.07
2018-06-13T11:10:53.100Z,3.40
2018-06-13T11:13:22.649Z,2.60
2018-06-13T11:15:51.612Z,1.90
2018-06-13T11:18:20.157Z,3.00
2018-06-13T11:20:48.796Z,2.67
2018-06-13T11:23:17.331Z,2.33
2018-06-13T11:25:47.428Z,3.57
2018-06-13T11:28:16.046Z,3.33
2018-06-13T11:30:45.726Z,2.87
2018-06-13T11:33:14.997Z,2.90
2018-06-13T11:35:44.485Z,2.03
2018-06-13T11:38:13.363Z,2.77
2018-06-13T11:40:41.881Z,2.40
2018-06-13T11:43:11.823Z,3.13
2018-06-13T11:45:41.049Z,2.50
2018-06-13T11:48:09.652Z,2.40
2018-06-13T11:50:41.903Z,1.60
2018-06-13T11:53:11.413Z,1.90
2018-06-13T11:55:40.051Z,2.00
2018-06-13T11:58:08.573Z,2.27
2018-06-13T12:00:38.679Z,1.80
2018-06-13T12:03:10.250Z,1.80
2018-06-13T12:05:39.970Z,1.73
2018-06-13T12:08:08.543Z,1.50
2018-06-13T12:10:37.111Z,1.23
2018-06-13T12:13:05.633Z,1.07
2018-06-13T12:15:34.373Z,1.33
2018-06-13T12:18:02.918Z,1.40
2018-06-13T12:20:31.475Z,1.20
2018-06-13T12:23:00.089Z,0.90
2018-06-13T12:25:28.615Z,1.27
2018-06-13T12:27:57.245Z,1.00
2018-06-13T12:30:25.736Z,1.10
2018-06-13T12:32:54.325Z,1.50
2018-06-13T12:35:22.873Z,1.33
2018-06-13T12:37:51.468Z,1.30
2018-06-13T12:40:20.052Z,1.40
2018-06-13T12:42:49.558Z,1.70
2018-06-13T12:45:20.940Z,1.07
2018-06-13T12:47:49.472Z,1.07
2018-06-13T12:50:17.962Z,1.53
2018-06-13T12:52:46.538Z,1.70
2018-06-13T12:55:15.040Z,1.40
2018-06-13T12:57:43.606Z,1.30
2018-06-13T13:00:11.771Z,1.13
2018-06-13T13:02:40.341Z,1.70
2018-06-13T13:05:08.839Z,1.70
2018-06-13T13:07:37.351Z,1.70
2018-06-13T13:10:05.882Z,1.50
2018-06-13T13:12:34.409Z,2.07
2018-06-13T13:15:02.842Z,1.50
2018-06-13T13:17:31.304Z,1.50
2018-06-13T13:19:59.838Z,1.60
2018-06-13T13:22:28.329Z,1.57
2018-06-13T13:24:56.854Z,1.40
2018-06-13T13:27:25.353Z,1.90
2018-06-13T13:29:53.910Z,1.80
2018-06-13T13:32:22.393Z,1.50
2018-06-13T13:34:50.922Z,1.70
2018-06-13T13:37:19.412Z,2.00
2018-06-13T13:39:47.923Z,2.37
2018-06-13T13:42:16.390Z,1.93
2018-06-13T13:44:45.344Z,2.33
2018-06-13T13:47:13.905Z,2.43
2018-06-13T13:49:42.700Z,2.90
2018-06-13T13:52:11.266Z,2.17
2018-06-13T13:54:39.851Z,2.80
2018-06-13T13:57:08.353Z,2.80
2018-06-13T13:59:36.826Z,2.40
2018-06-13T14:02:05.426Z,2.33
2018-06-13T14:04:33.944Z,2.20
2018-06-13T14:07:02.509Z,2.30
2018-06-13T14:09:31.075Z,2.27
2018-06-13T14:12:00.046Z,2.00
2018-06-13T14:14:28.578Z,2.20
2018-06-13T14:16:57.089Z,2.93
2018-06-13T14:19:25.617Z,1.80
2018-06-13T14:21:54.134Z,1.80
2018-06-13T14:24:22.655Z,2.23
2018-06-13T14:26:51.222Z,1.90
2018-06-13T14:29:19.731Z,1.10
2018-06-13T14:31:48.406Z,1.50
2018-06-13T14:34:16.937Z,1.40
2018-06-13T14:36:45.635Z,1.30
2018-06-13T14:39:14.353Z,1.07
2018-06-13T14:41:43.832Z,1.07
2018-06-13T14:44:12.426Z,1.47
2018-06-13T14:46:41.180Z,1.50
2018-06-13T14:49:09.722Z,1.20
2018-06-13T14:51:38.283Z,1.27
2018-06-13T14:54:06.834Z,1.63
2018-06-13T14:56:35.383Z,1.70
2018-06-13T14:59:03.959Z,1.47
2018-06-13T15:01:32.410Z,1.37
2018-06-13T15:04:00.991Z,1.60
2018-06-13T15:06:30.286Z,1.60
2018-06-13T15:08:58.866Z,1.50
2018-06-13T15:11:27.359Z,1.37
2018-06-13T15:13:55.866Z,1.50
2018-06-13T15:16:24.375Z,1.53
2018-06-13T15:18:52.898Z,1.43
2018-06-13T15:21:21.391Z,1.70
2018-06-13T15:23:50.007Z,1.63
2018-06-13T15:26:18.458Z,1.27
2018-06-13T15:28:47.067Z,1.93
2018-06-13T15:31:15.575Z,1.33
2018-06-13T15:33:44.086Z,1.63
2018-06-13T15:36:12.878Z,1.80
2018-06-13T15:38:41.432Z,1.93
2018-06-13T15:41:09.950Z,5.90
2018-06-13T15:43:38.495Z,1.83
2018-06-13T15:46:07.099Z,2.10
2018-06-13T15:48:35.689Z,1.07
2018-06-13T15:51:04.925Z,2.07
2018-06-13T15:53:33.435Z,1.70
2018-06-13T15:56:01.981Z,3.00
2018-06-13T15:58:30.486Z,1.77
2018-06-13T16:00:59.080Z,2.50
2018-06-13T16:03:27.588Z,3.50
2018-06-13T16:05:56.172Z,2.60
2018-06-13T16:08:24.645Z,2.40
2018-06-13T16:10:53.207Z,2.23
2018-06-13T16:13:21.720Z,2.73
2018-06-13T16:15:50.245Z,2.27
2018-06-13T16:18:18.743Z,2.70
2018-06-13T16:20:47.362Z,1.80
2018-06-13T16:23:16.010Z,1.87
2018-06-13T16:25:44.611Z,2.70
2018-06-13T16:28:13.170Z,2.40
2018-06-13T16:30:41.664Z,2.47
2018-06-13T16:33:10.200Z,2.90
2018-06-13T16:35:38.649Z,2.50
2018-06-13T16:38:06.822Z,3.87
2018-06-13T16:40:35.359Z,4.80
2018-06-13T16:43:03.915Z,9.23
2018-06-13T16:45:32.405Z,2.37
2018-06-13T16:48:00.944Z,2.17
2018-06-13T16:50:40.682Z,2.50
2018-06-13T16:53:44.674Z,3.13
2018-06-13T16:56:13.878Z,3.33
2018-06-13T16:58:42.396Z,4.77
2018-06-13T17:01:10.874Z,3.60
2018-06-13T17:03:39.552Z,2.90
2018-06-13T17:06:08.037Z,3.17
2018-06-13T17:08:37.441Z,2.60
2018-06-13T17:11:05.941Z,3.70
2018-06-13T17:13:34.445Z,2.40
2018-06-13T17:16:02.995Z,2.50
2018-06-13T17:18:31.521Z,2.90
2018-06-13T17:21:00.168Z,2.83
2018-06-13T17:23:30.587Z,2.93
2018-06-13T17:26:01.192Z,3.30
2018-06-13T17:28:29.827Z,2.63
2018-06-13T17:30:58.486Z,2.80
2018-06-13T17:33:27.202Z,2.20
2018-06-13T17:35:55.898Z,2.60
2018-06-13T17:38:24.401Z,2.57
2018-06-13T17:40:53.958Z,2.90
2018-06-13T17:43:22.475Z,2.77
2018-06-13T17:45:51.038Z,2.80
2018-06-13T17:48:19.543Z,3.37
2018-06-13T17:50:48.103Z,2.70
2018-06-13T17:53:18.841Z,3.13
2018-06-13T17:55:47.356Z,3.50
2018-06-13T17:58:15.954Z,2.60
2018-06-13T18:00:50.731Z,2.97
2018-06-13T18:03:19.614Z,2.97
2018-06-13T18:05:48.509Z,3.00
2018-06-13T18:08:17.093Z,3.80
2018-06-13T18:10:45.596Z,3.47
2018-06-13T18:13:14.760Z,3.50
2018-06-13T18:15:44.829Z,3.13
2018-06-13T18:18:13.467Z,2.93
2018-06-13T18:20:42.013Z,2.60
2018-06-13T18:23:10.624Z,3.00
2018-06-13T18:25:39.134Z,3.40
2018-06-13T18:28:08.356Z,3.50
2018-06-13T18:30:37.208Z,2.60
2018-06-13T18:33:06.214Z,3.50
2018-06-13T18:35:34.734Z,3.40
2018-06-13T18:38:03.334Z,2.90
2018-06-13T18:40:32.347Z,3.60
2018-06-13T18:43:00.887Z,3.30
2018-06-13T18:45:32.853Z,2.57
2018-06-13T18:48:01.107Z,3.00
2018-06-13T18:50:29.627Z,3.30
2018-06-13T18:53:01.336Z,3.30
2018-06-13T18:55:32.421Z,4.20
2018-06-13T18:58:01.127Z,3.03
2018-06-13T19:00:31.976Z,3.90
2018-06-13T19:03:00.594Z,4.00
2018-06-13T19:05:30.821Z,3.00
2018-06-13T19:08:00.295Z,3.30
2018-06-13T19:10:28.702Z,3.50
2018-06-13T19:12:57.457Z,3.07
2018-06-13T19:15:27.037Z,3.00
2018-06-13T19:17:55.622Z,3.90
2018-06-13T19:20:24.271Z,3.80
2018-06-13T19:22:52.946Z,3.10
2018-06-13T19:25:22.641Z,2.93
2018-06-13T19:27:51.893Z,4.27
2018-06-13T19:30:23.733Z,3.47
2018-06-13T19:32:54.137Z,2.83
2018-06-13T19:35:22.820Z,3.63
2018-06-13T19:37:55.337Z,3.70
2018-06-13T19:40:28.077Z,2.97
2018-06-13T19:42:57.367Z,4.17
2018-06-13T19:45:26.244Z,3.90
2018-06-13T19:49:04.105Z,3.10
2018-06-13T19:51:34.338Z,3.70
2018-06-13T19:54:10.735Z,4.10
2018-06-13T19:56:41.491Z,4.00
2018-06-13T19:59:11.915Z,4.30
2018-06-13T20:01:41.567Z,3.40
2018-06-13T20:04:17.479Z,3.77
2018-06-13T20:06:48.825Z,3.50
2018-06-13T20:09:20.275Z,3.80
2018-06-13T20:11:48.794Z,3.33
2018-06-13T20:14:22.685Z,4.57
2018-06-13T20:16:57.660Z,4.00
2018-06-13T20:19:31.506Z,3.27
2018-06-13T20:22:00.449Z,3.70
2018-06-13T20:24:29.917Z,4.27
2018-06-13T20:27:03.717Z,3.50
2018-06-13T20:29:38.715Z,3.60
2018-06-13T20:32:07.320Z,5.83
2018-06-13T20:34:35.836Z,3.70
2018-06-13T20:37:04.362Z,3.60
2018-06-13T20:39:32.546Z,3.43
2018-06-13T20:42:01.815Z,4.07
2018-06-13T20:44:31.422Z,4.00
2018-06-13T20:47:00.048Z,3.80
2018-06-13T20:49:28.748Z,3.97
2018-06-13T20:51:59.173Z,4.00
2018-06-13T20:54:29.608Z,3.70
2018-06-13T20:56:59.280Z,3.90
2018-06-13T20:59:27.833Z,3.10
2018-06-13T21:01:56.345Z,4.10
2018-06-13T21:04:24.586Z,3.80
2018-06-13T21:06:53.474Z,3.80
2018-06-13T21:09:22.804Z,5.00
2018-06-13T21:11:51.735Z,4.30
2018-06-13T21:14:20.364Z,4.20
2018-06-13T21:16:53.040Z,4.47
2018-06-13T21:19:22.413Z,4.00
2018-06-13T21:21:51.005Z,4.03
2018-06-13T21:24:21.299Z,4.60
2018-06-13T21:26:49.862Z,4.60
2018-06-13T21:29:18.435Z,3.80
2018-06-13T21:31:47.451Z,5.80
2018-06-13T21:34:17.856Z,4.37
2018-06-13T21:36:46.542Z,4.27
2018-06-13T21:39:14.753Z,4.50
2018-06-13T21:41:43.290Z,4.47
2018-06-13T21:44:11.943Z,4.17
2018-06-13T21:46:40.488Z,4.00
2018-06-13T21:49:09.015Z,7.40
2018-06-13T21:51:37.478Z,4.33
2018-06-13T21:54:06.193Z,4.20
2018-06-13T21:56:34.662Z,3.77
2018-06-13T21:59:03.158Z,3.57
2018-06-13T22:01:32.124Z,3.97
2018-06-13T22:04:00.627Z,4.33
2018-06-13T22:06:29.367Z,5.07
2018-06-13T22:08:57.872Z,3.70
2018-06-13T22:11:26.335Z,3.90
2018-06-13T22:13:54.846Z,3.30
2018-06-13T22:16:23.333Z,3.40
2018-06-13T22:18:51.844Z,3.07
2018-06-13T22:21:20.344Z,3.33
2018-06-13T22:23:48.862Z,3.20
2018-06-13T22:26:17.366Z,3.93
2018-06-13T22:28:46.017Z,3.70
2018-06-13T22:31:15.299Z,3.67
2018-06-13T22:33:43.814Z,2.80
2018-06-13T22:36:12.280Z,4.37
2018-06-13T22:38:40.779Z,3.73
2018-06-13T22:41:09.262Z,4.13
2018-06-13T22:43:37.750Z,3.90
2018-06-13T22:46:06.518Z,3.30
2018-06-13T22:48:35.159Z,3.80
2018-06-13T22:51:03.652Z,5.93
2018-06-13T22:53:32.188Z,3.33
2018-06-13T22:56:00.675Z,3.10
2018-06-13T22:58:29.275Z,3.80
2018-06-13T23:01:02.837Z,3.63
2018-06-13T23:03:32.184Z,3.60
2018-06-13T23:06:03.089Z,4.30
2018-06-13T23:08:32.374Z,3.10
2018-06-13T23:11:00.875Z,3.30
2018-06-13T23:13:29.428Z,3.80
2018-06-13T23:15:57.892Z,3.33
2018-06-13T23:18:27.201Z,3.57
2018-06-13T23:20:55.818Z,4.33
2018-06-13T23:23:24.306Z,3.80
2018-06-13T23:25:53.878Z,3.40
2018-06-13T23:28:22.370Z,3.10
2018-06-13T23:30:50.875Z,2.70
2018-06-13T23:33:20.753Z,3.23
2018-06-13T23:35:49.239Z,3.50
2018-06-13T23:38:17.810Z,5.80
2018-06-13T23:40:46.494Z,4.97
2018-06-13T23:43:14.971Z,4.10
2018-06-13T23:45:43.561Z,4.20
2018-06-13T23:48:12.107Z,3.90
2018-06-13T23:50:40.599Z,3.80
2018-06-13T23:53:09.067Z,3.40
2018-06-13T23:55:37.629Z,3.70
2018-06-13T23:58:06.190Z,3.60
